Time;durP1;ratioP1;P1;durP2;ratioP2;P2;SDS_P1;SDS_P2;PMS_P1;PMS_P2;Temp;Humidity;BMP_temperature;BMP_pressure;BME280_temperature;BME280_humidity;BME280_pressure;Samples;Min_cycle;Max_cycle;Signal;HPM_P1;HPM_P2
2023/11/02 00:01:51;;;;;;;;;2.00;1.75;;;;;12.79;76.28;98162.47;5077492;28;45439;-78
2023/11/02 00:04:17;;;;;;;;;6.50;2.75;;;;;12.80;75.98;98151.84;5076130;28;45564;-77
2023/11/02 00:06:46;;;;;;;;;2.00;2.00;;;;;12.80;77.03;98136.09;5080050;28;74109;-77
2023/11/02 00:09:15;;;;;;;;;1.00;1.00;;;;;12.83;75.73;98112.22;5062031;28;45530;-78
2023/11/02 00:11:53;;;;;;;;;3.00;1.25;;;;;12.86;75.21;98111.16;5057124;28;45237;-77
2023/11/02 00:14:19;;;;;;;;;1.25;1.25;;;;;12.86;76.70;98093.59;5058611;28;45545;-77
2023/11/02 00:16:46;;;;;;;;;4.50;1.75;;;;;12.82;75.83;98073.81;5043007;28;46294;-76
2023/11/02 00:19:24;;;;;;;;;2.00;0.75;;;;;12.77;76.53;98068.09;5078374;28;45446;-77
2023/11/02 00:21:49;;;;;;;;;3.50;1.00;;;;;12.77;75.61;98054.16;5060249;28;45299;-78
2023/11/02 00:24:16;;;;;;;;;1.50;1.50;;;;;12.76;76.42;98011.31;5075931;28;62486;-78
2023/11/02 00:26:41;;;;;;;;;2.25;1.00;;;;;12.71;78.72;98021.34;5058410;28;73179;-77
2023/11/02 00:29:06;;;;;;;;;4.25;2.00;;;;;12.67;80.56;97996.31;5060398;28;46999;-78
2023/11/02 00:31:32;;;;;;;;;3.00;2.00;;;;;12.65;80.22;97979.84;5073261;28;65325;-78
2023/11/02 00:33:57;;;;;;;;;4.00;2.75;;;;;12.61;76.85;97965.31;5077642;28;45588;-78
2023/11/02 00:36:22;;;;;;;;;2.00;2.00;;;;;12.56;77.77;97936.00;5060543;28;50141;-79
2023/11/02 00:38:48;;;;;;;;;3.00;2.00;;;;;12.53;76.95;97922.16;5077924;28;45501;-79
2023/11/02 00:41:13;;;;;;;;;6.00;2.00;;;;;12.49;76.94;97891.88;5056344;28;60241;-78
2023/11/02 00:43:38;;;;;;;;;3.50;1.25;;;;;12.49;76.47;97877.94;5052010;28;70783;-77
2023/11/02 00:46:04;;;;;;;;;3.25;0.50;;;;;12.44;76.97;97862.56;5050092;28;46575;-77
2023/11/02 00:48:33;;;;;;;;;2.00;1.00;;;;;12.47;76.81;97845.75;5039518;28;45419;-77
2023/11/02 00:51:20;;;;;;;;;0.25;0.25;;;;;12.45;76.14;97801.28;5055765;28;45363;-78
2023/11/02 00:54:06;;;;;;;;;2.00;1.00;;;;;12.42;77.16;97730.72;5054483;28;45220;-77
2023/11/02 00:56:35;;;;;;;;;3.25;2.00;;;;;12.41;76.34;97743.97;5052602;28;45332;-77
2023/11/02 00:59:01;;;;;;;;;3.50;0.75;;;;;12.35;76.19;97769.72;5054331;28;45504;-77
2023/11/02 01:01:28;;;;;;;;;3.00;1.00;;;;;12.34;76.42;97728.75;5047587;28;45423;-76
2023/11/02 01:04:00;;;;;;;;;2.00;0.50;;;;;12.33;76.65;97702.66;5053431;28;45392;-76
2023/11/02 01:06:28;;;;;;;;;3.00;0.00;;;;;12.30;76.43;97658.31;5071419;28;45453;-76
2023/11/02 01:08:59;;;;;;;;;6.25;1.50;;;;;12.32;75.53;97596.09;5052661;28;45556;-76
2023/11/02 01:11:30;;;;;;;;;1.75;1.00;;;;;12.30;76.10;97584.91;5059353;28;45459;-76
2023/11/02 01:13:57;;;;;;;;;0.75;0.75;;;;;12.28;76.70;97529.16;5055190;28;45501;-76
2023/11/02 01:16:22;;;;;;;;;0.25;0.00;;;;;12.28;76.27;97518.66;5051833;28;46818;-76
2023/11/02 01:18:47;;;;;;;;;1.00;0.00;;;;;12.27;76.97;97454.91;5056301;28;72225;-76
2023/11/02 01:21:17;;;;;;;;;2.75;0.25;;;;;12.27;76.38;97414.75;5056465;28;67809;-77
2023/11/02 01:23:42;;;;;;;;;0.00;0.00;;;;;12.27;76.81;97441.81;5058099;28;45537;-77
2023/11/02 01:26:39;;;;;;;;;1.50;0.00;;;;;12.30;76.39;97466.91;5039348;28;48096;-77
2023/11/02 01:29:04;;;;;;;;;1.75;0.00;;;;;12.26;76.79;97481.25;5073389;28;45446;-77
2023/11/02 01:31:36;;;;;;;;;1.00;0.00;;;;;12.28;76.68;97443.44;5052991;28;69444;-77
2023/11/02 01:34:02;;;;;;;;;2.50;1.00;;;;;12.25;76.52;97451.59;5054076;28;45488;-77
2023/11/02 01:36:38;;;;;;;;;0.00;0.00;;;;;12.25;76.65;97495.31;5055634;28;47949;-77
2023/11/02 01:39:28;;;;;;;;;0.75;0.75;;;;;12.25;76.94;97492.69;5057315;28;45802;-77
2023/11/02 01:42:00;;;;;;;;;1.75;0.50;;;;;12.27;76.80;97444.44;5054510;28;45483;-77
2023/11/02 01:44:42;;;;;;;;;11.25;9.50;;;;;12.26;77.39;97440.13;5053977;28;45584;-77
2023/11/02 01:47:27;;;;;;;;;1.00;1.00;;;;;12.32;77.34;97459.75;5048092;28;45521;-77
2023/11/02 01:50:04;;;;;;;;;2.25;0.00;;;;;12.32;76.60;97402.91;5053761;28;49015;-77
2023/11/02 01:52:53;;;;;;;;;1.00;1.00;;;;;12.36;76.91;97403.47;5063279;28;45379;-78
2023/11/02 01:55:24;;;;;;;;;2.00;0.50;;;;;12.37;77.50;97402.50;5058374;28;45508;-78
2023/11/02 01:58:19;;;;;;;;;3.50;0.00;;;;;12.39;77.73;97349.91;5054158;28;45600;-76
2023/11/02 02:01:00;;;;;;;;;2.00;0.25;;;;;12.41;77.46;97337.50;5044816;28;45654;-77
2023/11/02 02:03:32;;;;;;;;;0.00;0.00;;;;;12.45;77.34;97380.84;5039918;28;45451;-78
2023/11/02 02:06:05;;;;;;;;;1.00;0.00;;;;;12.49;77.25;97353.38;5051220;28;45459;-77
2023/11/02 02:08:59;;;;;;;;;0.00;0.00;;;;;12.52;77.06;97332.94;5050071;28;47102;-77
2023/11/02 02:11:32;;;;;;;;;1.00;0.00;;;;;12.56;77.19;97345.81;5058821;28;45501;-78
2023/11/02 02:14:15;;;;;;;;;0.75;0.00;;;;;12.60;76.96;97316.50;5052152;28;45369;-77
2023/11/02 02:17:19;;;;;;;;;1.00;0.00;;;;;12.63;76.95;97297.06;5056951;28;45407;-78
2023/11/02 02:20:03;;;;;;;;;1.00;0.00;;;;;12.67;76.20;97257.28;5054442;28;45492;-77
2023/11/02 02:22:56;;;;;;;;;2.25;0.00;;;;;12.71;76.52;97242.09;5058079;28;45482;-78
2023/11/02 02:26:00;;;;;;;;;1.00;0.00;;;;;12.76;76.17;97260.84;5043733;28;45377;-78
2023/11/02 02:28:59;;;;;;;;;0.00;0.00;;;;;12.81;76.03;97261.25;5036798;28;45581;-78
2023/11/02 02:31:47;;;;;;;;;0.50;0.00;;;;;12.86;75.94;97258.22;5058484;28;46349;-78
2023/11/02 02:34:40;;;;;;;;;0.75;0.00;;;;;12.90;75.83;97264.84;5032224;28;45365;-77
2023/11/02 02:37:24;;;;;;;;;0.50;0.50;;;;;12.92;75.46;97270.78;5055882;28;45479;-78
2023/11/02 02:39:59;;;;;;;;;1.00;0.00;;;;;12.97;75.68;97272.97;5057386;28;45349;-77
2023/11/02 02:42:25;;;;;;;;;7.75;5.50;;;;;12.99;75.24;97248.22;5041028;28;47138;-77
2023/11/02 02:44:51;;;;;;;;;0.00;0.00;;;;;13.05;75.16;97254.69;5056480;28;73424;-77
2023/11/02 02:47:19;;;;;;;;;1.00;0.00;;;;;13.07;74.53;97218.66;5052363;28;45478;-78
2023/11/02 02:49:49;;;;;;;;;1.00;0.00;;;;;13.12;74.36;97226.94;5053888;28;45407;-77
2023/11/02 02:52:18;;;;;;;;;0.00;0.00;;;;;13.16;74.15;97217.78;5040725;28;48104;-77
2023/11/02 02:54:49;;;;;;;;;1.00;0.00;;;;;13.18;73.61;97188.78;5049667;28;45570;-77
2023/11/02 02:57:16;;;;;;;;;0.00;0.00;;;;;13.19;73.37;97219.28;5056390;28;45422;-75
2023/11/02 02:59:47;;;;;;;;;0.25;0.00;;;;;13.21;73.63;97227.84;5056843;28;46856;-79
2023/11/02 03:02:14;;;;;;;;;0.00;0.00;;;;;13.15;72.45;97199.56;5056279;28;47779;-77
2023/11/02 03:04:41;;;;;;;;;0.00;0.00;;;;;13.15;73.13;97213.50;5057617;28;45434;-77
2023/11/02 03:07:06;;;;;;;;;0.50;0.00;;;;;13.19;73.08;97211.41;5056113;28;45386;-77
2023/11/02 03:09:34;;;;;;;;;3.00;0.00;;;;;13.19;72.69;97193.88;5058304;28;72014;-77
2023/11/02 03:12:01;;;;;;;;;0.75;0.00;;;;;13.18;71.97;97199.28;5052900;28;47202;-77
2023/11/02 03:14:27;;;;;;;;;0.00;0.00;;;;;13.18;72.61;97186.97;5036839;28;46078;-78
2023/11/02 03:16:56;;;;;;;;;0.00;0.00;;;;;13.21;72.41;97201.59;5039328;28;45546;-78
2023/11/02 03:19:48;;;;;;;;;0.25;0.00;;;;;13.22;71.67;97175.19;5056783;28;45642;-78
2023/11/02 03:22:17;;;;;;;;;1.25;0.00;;;;;13.23;71.60;97176.03;5038031;28;47138;-78
2023/11/02 03:25:01;;;;;;;;;0.00;0.00;;;;;13.28;71.30;97179.06;5056883;28;45483;-77
2023/11/02 03:27:36;;;;;;;;;0.00;0.00;;;;;13.31;71.11;97176.16;5053018;28;45486;-78
2023/11/02 03:30:08;;;;;;;;;2.00;0.75;;;;;13.33;70.52;97174.19;5039807;28;46367;-78
2023/11/02 03:32:37;;;;;;;;;0.00;0.00;;;;;13.39;69.35;97171.00;5056576;28;47067;-78
2023/11/02 03:35:18;;;;;;;;;0.25;0.00;;;;;13.39;69.42;97160.50;5053673;28;45982;-77
2023/11/02 03:38:19;;;;;;;;;0.00;0.00;;;;;13.48;68.90;97178.00;5057014;28;45584;-78
2023/11/02 03:41:18;;;;;;;;;0.75;0.00;;;;;13.56;68.61;97171.16;4997666;28;45524;-78
2023/11/02 03:43:58;;;;;;;;;1.00;0.00;;;;;13.60;67.78;97193.56;5054490;28;45652;-78
2023/11/02 03:46:38;;;;;;;;;0.00;0.00;;;;;13.63;67.75;97188.84;5053497;28;45639;-78
2023/11/02 03:49:16;;;;;;;;;1.00;0.00;;;;;13.71;67.46;97180.19;5056181;28;45307;-77
2023/11/02 03:52:09;;;;;;;;;0.75;0.50;;;;;13.77;66.75;97178.78;5054668;28;45541;-77
2023/11/02 03:54:51;;;;;;;;;2.25;0.00;;;;;13.81;65.32;97180.97;5046041;28;45568;-77
2023/11/02 03:57:30;;;;;;;;;0.75;0.00;;;;;13.90;66.28;97174.00;5053898;28;45523;-77
2023/11/02 04:00:04;;;;;;;;;0.00;0.00;;;;;13.90;67.38;97176.63;5054212;28;47392;-77
2023/11/02 04:02:32;;;;;;;;;3.50;0.00;;;;;13.98;68.48;97181.94;5047720;28;45389;-77
2023/11/02 04:05:21;;;;;;;;;4.00;0.00;;;;;14.04;67.29;97167.34;5036518;28;47365;-77
2023/11/02 04:08:12;;;;;;;;;0.00;0.00;;;;;14.05;67.60;97190.03;5071366;28;45602;-77
2023/11/02 04:10:46;;;;;;;;;3.00;0.00;;;;;14.01;68.87;97194.78;5048838;28;45426;-77
2023/11/02 04:13:22;;;;;;;;;3.50;2.00;;;;;13.93;72.20;97226.25;5057052;28;47368;-77
2023/11/02 04:15:47;;;;;;;;;2.00;0.50;;;;;13.70;74.36;97273.13;5047727;28;47770;-78
2023/11/02 04:18:12;;;;;;;;;1.50;0.00;;;;;13.50;73.57;97211.19;5046928;28;73138;-78
2023/11/02 04:20:38;;;;;;;;;0.50;0.00;;;;;13.33;73.44;97194.38;5047151;28;45449;-77
2023/11/02 04:23:04;;;;;;;;;1.25;0.00;;;;;13.22;71.71;97151.56;5056632;28;68352;-78
2023/11/02 04:25:29;;;;;;;;;0.50;0.00;;;;;13.11;70.87;97138.63;5046215;28;54032;-78
2023/11/02 04:27:55;;;;;;;;;0.50;0.00;;;;;13.05;67.49;97152.34;5054586;28;45470;-77
2023/11/02 04:30:20;;;;;;;;;0.75;0.00;;;;;13.05;68.78;97155.81;5054624;28;69204;-77
2023/11/02 04:32:46;;;;;;;;;2.00;0.00;;;;;13.05;69.15;97160.22;5054972;28;45317;-78
2023/11/02 04:35:11;;;;;;;;;0.00;0.00;;;;;13.03;69.95;97131.50;5047811;28;45444;-78
2023/11/02 04:37:37;;;;;;;;;2.00;0.00;;;;;13.03;70.52;97138.53;5053497;28;45315;-78
2023/11/02 04:40:03;;;;;;;;;2.00;0.00;;;;;13.02;71.47;97129.84;5057520;28;45343;-77
2023/11/02 04:42:29;;;;;;;;;2.50;0.00;;;;;13.00;71.87;97138.84;5058759;28;45501;-77
2023/11/02 04:44:54;;;;;;;;;1.00;0.00;;;;;12.97;72.72;97131.25;5052815;28;46174;-77
2023/11/02 04:47:20;;;;;;;;;3.00;0.00;;;;;12.93;71.35;97111.53;5060734;28;45399;-77
2023/11/02 04:49:45;;;;;;;;;2.75;1.00;;;;;12.95;71.74;97118.28;5053132;28;45314;-77
2023/11/02 04:52:11;;;;;;;;;0.00;0.00;;;;;12.92;72.22;97115.94;5048395;28;71872;-77
2023/11/02 04:54:36;;;;;;;;;2.25;0.25;;;;;12.94;72.09;97131.53;5055126;28;75475;-77
2023/11/02 04:57:02;;;;;;;;;2.00;0.00;;;;;12.98;71.79;97139.00;5052613;28;71343;-78
2023/11/02 04:59:31;;;;;;;;;1.75;0.00;;;;;13.02;71.29;97119.34;5052161;28;45453;-79
2023/11/02 05:01:57;;;;;;;;;2.50;1.00;;;;;13.03;71.26;97120.16;5051588;28;45651;-79
2023/11/02 05:04:23;;;;;;;;;4.50;0.25;;;;;13.04;70.54;97124.44;5055585;28;45653;-78
2023/11/02 05:06:48;;;;;;;;;1.00;0.00;;;;;13.05;70.35;97126.09;5055539;28;45505;-79
2023/11/02 05:09:13;;;;;;;;;1.50;0.00;;;;;13.05;69.81;97113.81;5050588;28;60760;-76
2023/11/02 05:11:39;;;;;;;;;2.75;1.00;;;;;13.03;69.18;97125.41;5052203;28;71706;-77
2023/11/02 05:14:04;;;;;;;;;0.00;0.00;;;;;13.04;69.22;97127.06;5060752;28;62676;-77
2023/11/02 05:16:29;;;;;;;;;1.00;0.00;;;;;13.03;68.51;97135.91;5061858;28;55170;-76
2023/11/02 05:18:55;;;;;;;;;7.75;1.75;;;;;13.04;68.24;97127.88;5049408;28;69033;-76
2023/11/02 05:21:20;;;;;;;;;1.00;0.00;;;;;13.04;68.16;97109.53;5059612;28;45446;-77
2023/11/02 05:23:46;;;;;;;;;0.75;0.75;;;;;13.03;68.27;97121.00;5051154;28;70414;-77
2023/11/02 05:26:13;;;;;;;;;0.50;0.50;;;;;13.05;68.17;97118.22;5058215;28;45580;-77
2023/11/02 05:28:38;;;;;;;;;1.00;0.00;;;;;13.05;68.01;97115.59;5060230;28;45461;-76
2023/11/02 05:31:04;;;;;;;;;4.00;0.50;;;;;13.08;68.14;97107.44;5059238;28;45785;-77
2023/11/02 05:33:29;;;;;;;;;3.75;0.25;;;;;13.08;67.60;97095.16;5033878;28;48506;-77
2023/11/02 05:35:55;;;;;;;;;2.00;0.00;;;;;13.06;66.71;97097.06;5054091;28;70185;-77
2023/11/02 05:38:21;;;;;;;;;0.00;0.00;;;;;13.03;67.25;97089.50;5059878;28;45279;-77
2023/11/02 05:40:46;;;;;;;;;1.50;0.00;;;;;13.07;67.84;97093.50;5060345;28;45373;-76
2023/11/02 05:43:11;;;;;;;;;0.00;0.00;;;;;13.02;67.63;97089.66;5062225;28;46368;-76
2023/11/02 05:45:37;;;;;;;;;4.75;1.00;;;;;13.08;66.97;97097.78;5060515;28;45625;-77
2023/11/02 05:48:03;;;;;;;;;3.75;1.00;;;;;13.08;67.37;97082.03;5059083;28;45416;-77
2023/11/02 05:50:28;;;;;;;;;2.25;1.00;;;;;13.07;67.38;97090.03;5057204;28;45315;-77
2023/11/02 05:52:54;;;;;;;;;2.50;0.00;;;;;13.12;67.70;97074.69;5059074;28;45337;-77
2023/11/02 05:55:20;;;;;;;;;3.50;1.00;;;;;13.17;67.21;97092.59;5071389;28;45406;-77
2023/11/02 05:57:46;;;;;;;;;4.50;1.00;;;;;13.19;66.31;97078.38;5079769;28;45555;-77
2023/11/02 06:00:11;;;;;;;;;3.00;0.75;;;;;13.23;65.82;97078.88;5059719;28;51271;-77
2023/11/02 06:02:38;;;;;;;;;3.00;1.00;;;;;13.23;65.39;97102.53;5060915;28;45892;-76
2023/11/02 06:05:05;;;;;;;;;1.00;0.50;;;;;13.24;64.91;97102.38;5042584;28;46087;-77
2023/11/02 06:07:31;;;;;;;;;1.75;1.00;;;;;13.27;65.27;97091.56;5059891;28;45555;-77
2023/11/02 06:09:57;;;;;;;;;3.00;0.00;;;;;13.25;65.13;97083.00;5044975;28;45531;-77
2023/11/02 06:12:23;;;;;;;;;1.00;1.00;;;;;13.31;65.36;97084.25;5041433;28;47295;-77
2023/11/02 06:14:48;;;;;;;;;4.00;1.00;;;;;13.33;64.92;97079.66;5038797;28;45317;-77
2023/11/02 06:17:14;;;;;;;;;5.50;2.00;;;;;13.32;64.91;97093.78;5062412;28;45565;-76
2023/11/02 06:19:39;;;;;;;;;3.50;1.00;;;;;13.31;64.17;97079.00;5079578;28;45394;-76
2023/11/02 06:22:04;;;;;;;;;9.00;2.00;;;;;13.32;64.19;97085.91;5044562;28;46732;-76
2023/11/02 06:24:31;;;;;;;;;2.75;0.75;;;;;13.30;63.98;97072.88;5057560;28;73260;-76
2023/11/02 06:26:56;;;;;;;;;5.00;0.25;;;;;13.30;63.30;97093.91;5060217;28;47250;-77
2023/11/02 06:29:21;;;;;;;;;3.00;1.00;;;;;13.31;64.62;97094.75;5077026;28;72862;-78
2023/11/02 06:31:47;;;;;;;;;2.00;1.00;;;;;13.26;62.99;97096.94;5057906;28;72013;-85
2023/11/02 06:34:15;;;;;;;;;3.00;0.50;;;;;13.26;63.72;97118.81;5059727;28;45305;-84
2023/11/02 06:36:40;;;;;;;;;1.00;0.25;;;;;13.32;62.04;97109.53;5073765;28;45342;-80
2023/11/02 06:39:06;;;;;;;;;4.25;0.50;;;;;13.33;63.29;97120.84;5063511;28;45619;-89
2023/11/02 06:41:31;;;;;;;;;1.50;1.00;;;;;13.35;62.29;97122.38;5060374;28;47285;-81
2023/11/02 06:43:57;;;;;;;;;4.25;0.00;;;;;13.35;62.23;97103.16;5061350;28;45392;-87
2023/11/02 06:46:22;;;;;;;;;2.50;0.00;;;;;13.30;60.17;97093.91;5078012;28;45489;-87
2023/11/02 06:48:47;;;;;;;;;0.00;0.00;;;;;13.32;61.15;97101.66;5061813;28;45516;-90
2023/11/02 06:51:13;;;;;;;;;5.00;0.25;;;;;13.32;61.44;97108.72;5065496;28;71255;-89
2023/11/02 06:53:38;;;;;;;;;4.00;1.00;;;;;13.29;61.65;97117.66;5050301;28;71978;-91
2023/11/02 06:56:04;;;;;;;;;2.25;0.00;;;;;13.29;61.26;97109.78;5058887;28;69496;-89
2023/11/02 06:58:30;;;;;;;;;3.75;0.00;;;;;13.31;62.01;97118.38;5043910;28;45703;-81
2023/11/02 07:00:56;;;;;;;;;2.50;0.00;;;;;13.25;61.42;97104.00;5047554;28;47296;-86
2023/11/02 07:03:22;;;;;;;;;4.75;1.00;;;;;13.27;61.39;97102.06;5048959;28;45669;-83
2023/11/02 07:05:47;;;;;;;;;2.00;1.50;;;;;13.29;60.24;97125.56;5059326;28;45680;-82
2023/11/02 07:08:13;;;;;;;;;2.00;0.50;;;;;13.32;60.36;97127.09;5061458;28;45592;-81
2023/11/02 07:10:38;;;;;;;;;1.00;0.25;;;;;13.38;59.88;97131.75;5056819;28;70730;-84
2023/11/02 07:13:15;;;;;;;;;3.25;0.00;;;;;13.42;59.90;97130.47;5034314;28;52654;-86
2023/11/02 07:15:41;;;;;;;;;1.50;1.25;;;;;13.43;61.25;97135.56;5054119;28;45546;-82
2023/11/02 07:18:06;;;;;;;;;1.00;1.00;;;;;13.43;60.75;97113.75;5040096;28;45434;-82
2023/11/02 07:20:32;;;;;;;;;2.50;1.00;;;;;13.50;61.14;97111.38;5061627;28;45447;-85
2023/11/02 07:22:58;;;;;;;;;2.50;1.00;;;;;13.52;60.42;97107.59;5050158;28;72886;-86
2023/11/02 07:25:23;;;;;;;;;3.75;1.00;;;;;13.49;60.08;97123.66;5072700;27;45425;-85
2023/11/02 07:27:49;;;;;;;;;4.25;0.50;;;;;13.52;60.75;97117.28;5041508;28;58644;-89
2023/11/02 07:30:14;;;;;;;;;3.75;0.25;;;;;13.45;61.00;97123.13;5061961;28;45473;-90
2023/11/02 07:32:40;;;;;;;;;9.00;1.00;;;;;13.43;60.53;97146.09;5081287;28;45287;-87
2023/11/02 07:35:06;;;;;;;;;2.50;1.00;;;;;13.38;61.23;97144.88;5046563;28;45493;-77
2023/11/02 07:37:31;;;;;;;;;2.00;0.50;;;;;13.32;61.33;97137.59;5060577;28;45526;-78
2023/11/02 07:39:57;;;;;;;;;2.75;1.00;;;;;13.26;61.91;97142.44;5078001;28;64359;-85
2023/11/02 07:42:24;;;;;;;;;1.50;0.00;;;;;13.23;62.01;97155.03;5062646;28;45360;-81
2023/11/02 07:44:49;;;;;;;;;2.50;1.00;;;;;13.19;61.78;97159.75;5043442;28;45315;-80
2023/11/02 07:47:14;;;;;;;;;1.25;0.50;;;;;13.19;62.31;97151.88;5073725;28;45517;-81
2023/11/02 07:49:40;;;;;;;;;5.75;2.00;;;;;13.16;62.33;97175.78;5066185;28;45220;-81
2023/11/02 07:52:07;;;;;;;;;2.25;0.50;;;;;13.14;62.45;97169.00;5078226;28;68494;-78
2023/11/02 07:54:38;;;;;;;;;1.50;0.00;;;;;13.18;61.83;97184.34;5057768;28;45486;-82
2023/11/02 07:57:08;;;;;;;;;1.00;0.00;;;;;13.20;61.20;97179.78;5056432;28;45525;-77
2023/11/02 07:59:37;;;;;;;;;3.50;0.00;;;;;13.22;64.10;97187.50;5076880;28;46486;-76
2023/11/02 08:02:04;;;;;;;;;5.50;0.75;;;;;13.20;63.85;97187.63;5042255;28;45599;-78
2023/11/02 08:04:30;;;;;;;;;0.25;0.25;;;;;13.14;62.56;97169.00;5060888;28;45247;-87
2023/11/02 08:06:56;;;;;;;;;4.50;1.00;;;;;13.09;63.03;97174.72;5082445;28;45166;-91
2023/11/02 08:09:21;;;;;;;;;4.00;0.00;;;;;13.03;62.23;97162.16;5076689;28;46045;-78
2023/11/02 08:11:46;;;;;;;;;0.50;0.00;;;;;13.03;62.53;97170.03;5056236;28;45317;-76
2023/11/02 08:14:12;;;;;;;;;2.75;1.00;;;;;12.99;63.48;97184.44;5057093;28;69429;-82
2023/11/02 08:16:37;;;;;;;;;2.00;1.00;;;;;12.93;63.65;97195.50;5064910;28;45573;-83
2023/11/02 08:19:03;;;;;;;;;2.50;0.00;;;;;12.93;64.03;97177.97;5081931;28;47036;-80
2023/11/02 08:21:28;;;;;;;;;2.25;0.00;;;;;12.93;64.33;97169.28;5049467;28;45224;-78
2023/11/02 08:23:54;;;;;;;;;18.25;15.50;;;;;12.94;63.83;97178.78;5048549;28;45507;-79
2023/11/02 08:26:21;;;;;;;;;30.75;23.00;;;;;12.97;63.90;97187.19;5075374;28;45538;-83
2023/11/02 08:28:51;;;;;;;;;4.00;0.50;;;;;12.98;63.66;97191.47;5067659;28;45359;-84
2023/11/02 08:31:24;;;;;;;;;5.25;0.00;;;;;12.98;62.11;97172.25;5064261;28;45347;-87
2023/11/02 08:33:50;;;;;;;;;2.00;0.00;;;;;12.98;61.81;97167.00;5079582;28;45352;-82
2023/11/02 08:36:16;;;;;;;;;4.50;1.00;;;;;12.98;61.47;97173.09;5062495;28;45691;-83
2023/11/02 08:38:42;;;;;;;;;1.25;0.75;;;;;12.99;60.19;97142.44;5061418;28;45402;-84
2023/11/02 08:41:17;;;;;;;;;2.50;1.00;;;;;13.03;60.79;97151.66;5046834;28;45349;-83
2023/11/02 08:43:46;;;;;;;;;2.00;0.50;;;;;13.04;60.12;97134.94;5065866;28;45527;-88
2023/11/02 08:46:19;;;;;;;;;2.50;0.00;;;;;13.10;59.74;97150.94;5061021;28;45395;-82
2023/11/02 08:48:47;;;;;;;;;7.00;1.25;;;;;13.14;59.44;97143.59;5044619;28;47238;-87
2023/11/02 08:51:15;;;;;;;;;3.75;1.00;;;;;13.13;59.76;97128.81;5043319;28;45391;-79
2023/11/02 08:53:41;;;;;;;;;4.00;1.00;;;;;13.21;59.55;97155.19;5083839;28;45435;-87
2023/11/02 08:56:10;;;;;;;;;5.75;1.25;;;;;13.24;58.91;97149.63;5058907;28;45319;-85
2023/11/02 08:58:52;;;;;;;;;3.00;1.50;;;;;13.30;58.05;97167.41;5055806;28;47237;-85
2023/11/02 09:01:20;;;;;;;;;1.00;0.75;;;;;13.35;58.48;97188.03;5059013;28;45332;-89
2023/11/02 09:03:45;;;;;;;;;2.00;0.75;;;;;13.33;58.05;97183.88;5056745;28;45281;-87
2023/11/02 09:06:11;;;;;;;;;5.00;2.00;;;;;13.39;57.43;97192.00;5056151;28;60893;-90
2023/11/02 09:08:37;;;;;;;;;1.50;1.00;;;;;13.44;57.14;97204.72;5066987;28;62932;-80
2023/11/02 09:11:05;;;;;;;;;2.75;1.00;;;;;13.45;56.25;97195.84;5082506;28;45687;-84
2023/11/02 09:13:31;;;;;;;;;3.00;0.00;;;;;13.46;55.35;97205.38;5061765;28;45256;-84
2023/11/02 09:15:57;;;;;;;;;2.25;0.50;;;;;13.53;56.39;97211.72;5053038;28;59500;-84
2023/11/02 09:18:22;;;;;;;;;1.00;0.00;;;;;13.52;56.28;97190.84;5064393;28;47154;-74
2023/11/02 09:20:49;;;;;;;;;1.50;1.00;;;;;13.56;54.09;97221.91;5079780;28;73352;-78
2023/11/02 09:23:16;;;;;;;;;1.75;0.00;;;;;13.61;54.13;97231.97;5041771;28;45370;-78
2023/11/02 09:25:42;;;;;;;;;0.00;0.00;;;;;13.60;54.66;97220.66;5080622;28;45534;-85
2023/11/02 09:28:08;;;;;;;;;3.00;1.00;;;;;13.67;55.02;97240.09;5055344;28;46715;-76
2023/11/02 09:30:34;;;;;;;;;0.25;0.00;;;;;13.72;54.67;97238.84;5076506;28;45414;-80
2023/11/02 09:32:59;;;;;;;;;1.00;0.00;;;;;13.72;54.19;97230.94;5036746;28;45244;-91
2023/11/02 09:35:25;;;;;;;;;2.75;2.00;;;;;13.75;53.97;97236.72;5061325;28;45537;-88
2023/11/02 09:37:51;;;;;;;;;2.00;0.00;;;;;13.80;54.99;97252.06;5059714;28;47515;-88
2023/11/02 09:40:16;;;;;;;;;0.50;0.00;;;;;13.86;54.48;97235.69;5085611;28;45855;-86
2023/11/02 09:42:43;;;;;;;;;0.75;0.00;;;;;13.89;54.13;97245.91;5058643;28;45446;-83
2023/11/02 09:45:09;;;;;;;;;0.00;0.00;;;;;13.88;53.70;97264.47;5058904;28;45591;-89
2023/11/02 09:47:38;;;;;;;;;0.00;0.00;;;;;13.92;54.62;97279.81;5060082;28;46860;-88
2023/11/02 09:50:04;;;;;;;;;2.75;0.00;;;;;13.94;54.41;97266.50;5065383;28;45482;-87
2023/11/02 09:52:31;;;;;;;;;3.00;0.00;;;;;13.99;53.28;97254.56;5059318;28;45170;-80
2023/11/02 09:54:56;;;;;;;;;2.25;1.00;;;;;14.02;54.22;97248.19;5064517;28;45447;-88
2023/11/02 09:57:22;;;;;;;;;2.50;1.00;;;;;14.07;53.71;97245.94;5077941;28;53175;-87
2023/11/02 09:59:48;;;;;;;;;2.00;0.00;;;;;14.05;53.30;97240.00;5054706;28;45264;-84
2023/11/02 10:02:16;;;;;;;;;0.75;0.25;;;;;14.12;54.03;97269.97;5076368;28;44705;-87
2023/11/02 10:04:42;;;;;;;;;2.25;0.00;;;;;14.15;54.25;97274.13;5067171;28;45545;-87
2023/11/02 10:07:08;;;;;;;;;8.00;2.00;;;;;14.18;53.84;97277.28;5072467;28;44970;-84
2023/11/02 10:09:34;;;;;;;;;3.50;1.00;;;;;14.23;52.82;97284.72;5068441;28;45297;-78
2023/11/02 10:12:03;;;;;;;;;2.00;0.00;;;;;14.38;53.09;97290.28;5052339;28;45312;-88
2023/11/02 10:14:29;;;;;;;;;2.00;0.50;;;;;14.85;51.58;97289.22;5070248;28;45017;-89
2023/11/02 10:17:04;;;;;;;;;1.00;0.00;;;;;15.10;50.40;97285.78;5077218;28;45084;-88
2023/11/02 10:19:30;;;;;;;;;4.75;1.00;;;;;15.09;52.22;97294.66;5068027;28;45037;-88
2023/11/02 10:21:56;;;;;;;;;1.50;0.25;;;;;14.99;50.72;97307.09;5077119;28;45336;-79
2023/11/02 10:24:32;;;;;;;;;3.50;0.00;;;;;14.91;51.18;97312.28;5066868;28;45528;-86
2023/11/02 10:26:58;;;;;;;;;5.50;5.25;;;;;14.86;52.22;97317.22;5070219;28;45380;-83
2023/11/02 10:29:24;;;;;;;;;25.25;20.50;;;;;14.78;51.57;97305.63;5062388;28;45387;-89
2023/11/02 10:31:53;;;;;;;;;4.50;0.00;;;;;14.86;52.30;97319.84;5066221;28;45233;-89
2023/11/02 10:34:22;;;;;;;;;2.75;1.25;;;;;14.89;51.51;97336.16;5075996;28;45528;-84
2023/11/02 10:36:48;;;;;;;;;3.25;1.00;;;;;14.89;51.42;97333.53;5066739;28;45365;-92
2023/11/02 10:39:21;;;;;;;;;0.75;0.50;;;;;14.85;51.66;97320.81;5052119;28;45449;-87
2023/11/02 10:42:00;;;;;;;;;2.00;0.00;;;;;14.92;52.56;97327.13;5077048;28;45635;-87
2023/11/02 10:44:31;;;;;;;;;5.25;1.00;;;;;14.94;51.37;97330.41;5083519;27;45359;-87
2023/11/02 10:47:01;;;;;;;;;2.50;0.00;;;;;14.92;50.86;97338.47;5063729;28;46915;-90
2023/11/02 10:49:36;;;;;;;;;0.75;0.00;;;;;14.93;52.73;97320.88;5060957;28;45262;-85
2023/11/02 10:52:08;;;;;;;;;0.25;0.25;;;;;14.98;51.72;97334.41;5061993;28;45462;-86
2023/11/02 10:54:42;;;;;;;;;0.00;0.00;;;;;15.02;51.77;97316.50;5046486;28;45458;-85
2023/11/02 10:57:19;;;;;;;;;1.00;1.00;;;;;14.97;51.07;97314.31;5063712;28;47087;-82
2023/11/02 10:59:46;;;;;;;;;4.50;0.00;;;;;14.96;51.00;97307.38;5069391;28;45245;-82
2023/11/02 11:02:17;;;;;;;;;1.00;1.00;;;;;14.88;51.62;97315.25;5052911;28;45375;-88
2023/11/02 11:04:44;;;;;;;;;2.50;1.00;;;;;14.86;52.05;97314.56;5073095;28;45347;-84
2023/11/02 11:07:10;;;;;;;;;1.00;1.00;;;;;14.84;51.45;97330.53;5076649;28;46197;-83
2023/11/02 11:09:37;;;;;;;;;2.00;2.00;;;;;14.80;51.08;97323.88;5035695;28;45783;-88
2023/11/02 11:12:04;;;;;;;;;5.75;1.00;;;;;14.88;52.43;97349.47;5077871;28;45500;-79
2023/11/02 11:14:30;;;;;;;;;3.00;1.00;;;;;14.91;52.18;97338.59;5045887;28;45942;-87
2023/11/02 11:16:56;;;;;;;;;5.00;1.00;;;;;14.92;52.33;97337.66;5065922;28;47091;-84
2023/11/02 11:19:23;;;;;;;;;3.25;1.00;;;;;14.95;51.90;97335.53;5067525;28;45838;-84
2023/11/02 11:21:50;;;;;;;;;6.50;2.25;;;;;14.94;51.37;97328.63;5063091;28;45524;-82
2023/11/02 11:24:21;;;;;;;;;3.00;1.00;;;;;14.96;50.73;97334.56;5077091;28;45320;-76
2023/11/02 11:26:53;;;;;;;;;5.00;4.75;;;;;14.97;51.25;97356.44;5062758;28;46406;-77
2023/11/02 11:29:42;;;;;;;;;18.00;15.50;;;;;15.07;51.90;97335.28;5062839;28;46170;-77
2023/11/02 11:32:34;;;;;;;;;2.50;1.00;;;;;15.10;49.99;97334.97;5064719;28;45486;-79
2023/11/02 11:35:03;;;;;;;;;1.75;1.00;;;;;15.11;50.62;97326.94;5067331;28;45463;-76
2023/11/02 11:37:37;;;;;;;;;2.00;1.00;;;;;15.12;50.85;97338.28;5080228;28;46287;-81
2023/11/02 11:40:07;;;;;;;;;1.25;1.00;;;;;15.11;49.18;97341.91;5087207;28;45411;-81
2023/11/02 11:43:34;;;;;;;;;0.25;0.25;;;;;15.14;49.15;97334.53;5081894;28;45256;-80
2023/11/02 11:45:43;;;;;;;;;5.00;2.00;;;;;15.18;50.41;97350.84;5064822;28;45363;-82
2023/11/02 11:48:10;;;;;;;;;2.00;1.00;;;;;15.21;50.30;97333.91;5056874;28;47416;-75